Portage, Michigan
Current Conditions -  °F | °C
As of 3:33 PM on Monday 22 Dec 2014 (Local Time) from KAZO Reporting Station
Overcast Overcast  
Wind Chill: 34°   Ceiling: 1700
Heat Index: 39°   Visibility: 9mi
Dew Point: 30°   Wind: 7mph
Humidity: 70%   Direction: 110°ESE
Pressure: 29.85"   Gusts: NA
Location:  42.2°N, 85.59°W
Report Text: KAZO 222033Z 11006KT 9SM BKN017 OVC050 04/M01 A2985 RMK AO2 RAE33 P0000 T00391011
Loading
Personal Weather Stations






























Interactive Weather Map New forecast layout! Learn more

10-Day Weather Forecast

Advertisements
Track Severe Weather on mobile